Terminal Aerodrome Forecast
Issued by NWS Charleston, SC

Home | Current Version | Previous Version | Text Only | Print | Product List | Glossary On
Versions: 1 2 3 4 5 6 7 8 9 10 11 12
176
FTUS42 KCHS 282321
TAFSAV
TAF
KSAV 282321Z 2900/2924 26005KT P6SM FEW060 SCT250
     FM291200 30003KT P6SM SKC
     FM291600 03003KT P6SM FEW250
     FM292000 09005KT P6SM SCT250=

USA.gov is the U.S. government's official web portal to all federal, state and local government web resources and services.